Detall de PIREP

Printer-friendly versionPDF version

[2013/12/20 08:40:00]
Flight IATA:CT2110
Pilot Number:041
Company ICAO:CAT
Aircraft Type:AT72/F
PAX:49
Departing Airport: LEVC
Destination Airport: LEST
Alternate Airport:LEMD
Online: VATSIM
Route:CENTA A33 PRADO A33 CJN A33 HORTA A33 MAGIN A33 INDEG A33 DISKO A33 ZMR A33 BARKO A33 FORNO
Flight Level:FL190
No Slew and time accel
No pause
Crash detect
Detect pilot in Cockpit between each 30 and 45 minutes
08:40 Zero fuel Weight: 38957 Lbs, Fuel Weight: 4896 Lbs
08:40 VATSIM:LEVC 200830Z 32015KT 9999 FEW035 BKN058 12/00 Q1021 NOSIG
08:40 VATSIM:LEST 200830Z 14005KT 9999 VCFG NSC 01/01 Q1032 NOSIG
08:40 VOICE CATALONIAN
08:41 Parking Brakes off
08:46 Take-off
08:46 Take off Weight: 43791 Lbs
08:46 Wind: 333º @ 013 Knots Heading: 297º
08:46 POS N39º 29´ 23´´ W000º 29´ 00´´
08:46 Gear Up: 149 Knots
08:46 Flaps:1 at 149 Knots
08:46 Flaps:0 at 165 Knots
09:01 Wind:016º@009 Knots Heading: 301º Ground Speed: 231 Knots Altitude 15488 ft
09:11 TOC
09:11 Fuel Weight: 4011 Lb
09:16 Wind:003º@003 Knots Heading: 297º Ground Speed: 281 Knots Altitude 19376 ft
09:31 Wind:003º@067 Knots Heading: 309º Ground Speed: 248 Knots Altitude 19399 ft
09:46 Wind:354º@056 Knots Heading: 305º Ground Speed: 249 Knots Altitude 19507 ft
09:49 TOD
09:49 Fuel Weight: 2933 Lb
10:01 Wind:359º@021 Knots Heading: 308º Ground Speed: 254 Knots Altitude 10134 ft
10:16 Wind:325º@005 Knots Heading: 302º Ground Speed: 242 Knots Altitude 5777 ft
10:27 Flaps:1 at 188 Knots
10:31 Wind:325º@005 Knots Heading: 193º Ground Speed: 181 Knots Altitude 3992 ft
10:31 Gear Down: 172 Knots
10:32 Flaps:2 at 127 Knots
10:36 TouchDown:Rate -187 ft/min Speed: 98 Knots
10:36 Flaps:0 at 82 Knots
10:36 VATSIM:LEST 201030Z 13003KT 9000 VCFG NSC 05/04 Q1033 NOSIG
10:36 Land
10:36 Wind:146º@002 Knots
10:36 Heading: 216º
10:36 Flight Duration: 01:50
10:36 Landing Weight: 40859 Lbs
10:36 POS N42º 53´ 52´´ W008º 24´ 57´´
10:37 Parking brakes on
10:37 Block to Block Duration: 01:56
10:37 Final Fuel: 1895 Lbls
10:37 Spent Fuel: 3000 Lbls
10:37 Flight Length: 443 NM
10:37 TOD Land Length: 178 NM

Exportar CSV

Powered by Drupal - Modified by Danger4k